Tumtum, WA

6:29 PM PDT on September 15, 2014 (GMT -0700)
Four Mound Prairie | Change Station
CLOSE
Current Station
Personal Weather Station
Location: Reardan, WA
Elevation: 2452 ft
Nearby Weather Stations

Elev 2452 ft 47.78 °N, 117.73 °W | Updated 6 seconds ago

Clear
Clear
80.1 °F
Feels Like 78 °F
N
3.1
Wind Variable Wind from East
Gusts 4.5 mph

Today
High -- | Low -- °F
--% Chance of Precip.
Yesterday
High -- | Low -- °F
Precip. -- in
6:28 AM 7:03 PM
Waning Gibbous, 50% visible
Pressure 29.92 in
Visibility 10.0 miles
Clouds Clear
Heat Index 78 °F
Dew Point 25 °F
Humidity 13%
Rainfall 0.00 in
Snow Depth 0 in , 0 in , 0 in
UV 1 out of 12
Pollen 7.00 out of 12
PM2.5 Good
Flu Activity Not available.
METAR KDEW 160053Z AUTO 02004KT 10SM CLR 27/00 A2994 RMK AO2 SLP131 T02670000

More Conditions Fewer Conditions

Pressure 29.92 in
Visibility 10.0 miles
Clouds Clear
Heat Index 78 °F
Dew Point 25 °F
Humidity 13%
Rainfall 0.00 in
Snow Depth 0 in , 0 in , 0 in
UV 1 out of 12
Pollen 7.00 out of 12
PM2.5 Good
Flu Activity Not available.
METAR KDEW 160053Z AUTO 02004KT 10SM CLR 27/00 A2994 RMK AO2 SLP131 T02670000

More Conditions Fewer Conditions

10-Day Weather Forecast

Almanac

Astronomy

Sep. 15, 2014 Rise Set
Actual Time 6:28 AM PDT 7:03 PM PDT
Civil Twilight 5:57 AM PDT 7:34 PM PDT
Nautical Twilight 5:20 AM PDT 8:11 PM PDT
Astronomical Twilight 4:41 AM PDT 8:49 PM PDT
Moon 11:24 PM PDT (9/15) 1:58 PM PDT (9/15)
Length of Visible Light 13h 37m
Length of Day
12h 34m
Tomorrow will be 3m 26s shorter.
Waning Gibbous, 50% of the Moon is Illuminated
Today
Waning Gibbous
Sep 15
Last Quarter
Sep 24
New
Oct 1
First Quarter
Oct 8
Full

Today's Extremes

State Highs State Lows

Community

WunderPhotos

Upload Photos

1,753,645 photos uploaded!

WunderBlogs® & News

Nearby

Air Quality

  Air Quality AQ Index Pollutant
Yesterday Good
PM10
Yesterday Good
OZONE
Current Good
PM2.5
Monday Good
PM10
Monday Good
OZONE
Tuesday Good
PM10
Tuesday Good
OZONE

Snow Depth

Station Depth Elevation
Grouse Camp 0 in 5380 ft
Touchet 0 in 5530 ft
Meadows Pass 0 in 3500 ft
Quartz Peak 0 in 4700 ft
Pope Ridge 0 in 3540 ft

Earthquake Activity

City Distance Mag. Time & Date
No recent earthquake activity has been reported nearby.
Minimum magnitude displayed is 2.5.

Coastal Water Temperatures

Place Temperature
No Stations Reporting

Nearby Weather Stations